Time;durP1;ratioP1;P1;durP2;ratioP2;P2;SDS_P1;SDS_P2;PMS_P1;PMS_P2;Temp;Humidity;BMP_temperature;BMP_pressure;BME280_temperature;BME280_humidity;BME280_pressure;Samples;Min_cycle;Max_cycle;Signal;HPM_P1;HPM_P2
2022/03/04 00:00:43;;;;;;;26.90;13.63;;;-0.10;99.90;;;;;;12496848;28;20093;-39
2022/03/04 00:06:46;;;;;;;27.55;13.65;;;-0.10;99.90;;;;;;12492592;28;20059;-36
2022/03/04 00:12:50;;;;;;;30.65;15.40;;;0.10;99.90;;;;;;12491545;28;20044;-35
2022/03/04 00:19:09;;;;;;;32.03;15.52;;;-0.10;99.90;;;;;;12494909;28;20061;-35
2022/03/04 00:25:13;;;;;;;33.15;16.27;;;-0.10;99.90;;;;;;12476465;28;20057;-40
2022/03/04 00:31:16;;;;;;;37.90;17.23;;;-0.10;99.90;;;;;;12492565;28;20085;-39
2022/03/04 00:37:18;;;;;;;37.95;18.85;;;-0.10;99.90;;;;;;12490836;28;20054;-36
2022/03/04 00:43:20;;;;;;;41.95;20.17;;;0.00;99.90;;;;;;12489346;28;20282;-39
2022/03/04 00:49:24;;;;;;;43.70;20.15;;;-0.10;99.90;;;;;;12492827;28;20054;-36
2022/03/04 00:55:26;;;;;;;45.05;20.90;;;-0.20;99.90;;;;;;12487011;28;20056;-36
2022/03/04 01:01:28;;;;;;;43.65;20.67;;;-0.20;99.90;;;;;;12470094;28;20061;-39
2022/03/04 01:07:32;;;;;;;43.92;21.58;;;-0.30;99.90;;;;;;12491638;28;20057;-38
2022/03/04 01:13:34;;;;;;;47.13;21.70;;;-0.40;99.90;;;;;;12491091;28;20049;-35
2022/03/04 01:19:38;;;;;;;47.00;22.02;;;-0.50;99.90;;;;;;12490916;28;20045;-35
2022/03/04 01:25:42;;;;;;;49.65;21.92;;;-0.60;99.90;;;;;;12474840;28;20295;-39
2022/03/04 01:31:44;;;;;;;49.83;23.52;;;-0.60;99.90;;;;;;12488549;28;20547;-36
2022/03/04 01:37:48;;;;;;;49.97;22.40;;;-0.70;99.90;;;;;;12487838;28;20041;-35
2022/03/04 01:43:50;;;;;;;49.75;22.90;;;-0.60;99.90;;;;;;12488988;28;20056;-36
2022/03/04 01:49:53;;;;;;;50.80;22.40;;;-0.50;99.90;;;;;;12488792;28;20110;-39
2022/03/04 01:55:57;;;;;;;47.13;21.15;;;-0.60;99.90;;;;;;12486749;28;20079;-36
2022/03/04 02:02:01;;;;;;;47.65;21.42;;;-0.60;99.90;;;;;;12446756;28;20049;-37
2022/03/04 02:08:06;;;;;;;46.25;21.13;;;-0.70;99.90;;;;;;12469717;28;21226;-39
2022/03/04 02:14:11;;;;;;;45.90;20.50;;;-0.60;99.90;;;;;;12485631;28;21048;-39
2022/03/04 02:20:14;;;;;;;45.28;20.17;;;-0.70;99.90;;;;;;12485631;28;20045;-39
2022/03/04 02:26:16;;;;;;;52.55;22.00;;;-0.60;99.90;;;;;;12487740;28;20080;-37
2022/03/04 02:32:19;;;;;;;54.20;22.35;;;-0.60;99.90;;;;;;12468956;28;20084;-39
2022/03/04 02:38:22;;;;;;;49.17;21.97;;;-0.50;99.90;;;;;;12488387;28;20056;-36
2022/03/04 02:44:25;;;;;;;45.20;19.70;;;-0.40;99.90;;;;;;12495152;28;20452;-37
2022/03/04 02:50:28;;;;;;;47.50;22.13;;;-0.50;99.90;;;;;;12497315;28;20544;-40
2022/03/04 02:56:31;;;;;;;42.15;19.05;;;-0.30;99.90;;;;;;12495167;28;20048;-40
2022/03/04 03:02:36;;;;;;;39.07;17.47;;;-0.40;99.90;;;;;;12487857;28;20047;-40
2022/03/04 03:08:41;;;;;;;34.70;17.05;;;-0.30;99.90;;;;;;12475947;28;20505;-36
2022/03/04 03:14:45;;;;;;;33.88;15.52;;;-0.60;99.90;;;;;;12490891;28;20095;-36
2022/03/04 03:20:47;;;;;;;33.35;15.40;;;-0.50;99.90;;;;;;12472518;28;20080;-39
2022/03/04 03:26:50;;;;;;;32.25;15.48;;;-0.60;99.90;;;;;;12495183;28;20057;-36
2022/03/04 03:32:53;;;;;;;34.95;15.38;;;-0.60;99.90;;;;;;12488891;28;20045;-36
2022/03/04 03:38:56;;;;;;;21.10;10.50;;;-0.70;99.90;;;;;;12492026;28;20048;-40
2022/03/04 03:44:58;;;;;;;31.55;14.50;;;-0.50;99.90;;;;;;12489111;28;21133;-39
2022/03/04 03:51:00;;;;;;;34.67;15.90;;;-0.50;99.90;;;;;;12487987;28;20056;-36
2022/03/04 03:57:03;;;;;;;32.33;14.17;;;-0.60;99.90;;;;;;12490859;28;20168;-36
2022/03/04 04:03:07;;;;;;;36.13;14.27;;;-0.50;99.90;;;;;;12491606;28;20045;-39
2022/03/04 04:09:11;;;;;;;33.85;14.77;;;-0.40;99.90;;;;;;12490407;28;20543;-39
2022/03/04 04:15:14;;;;;;;36.15;16.92;;;-0.40;99.90;;;;;;12484947;28;20049;-37
2022/03/04 04:21:16;;;;;;;32.85;14.63;;;-0.40;99.90;;;;;;12487041;28;20103;-38
2022/03/04 04:27:20;;;;;;;33.67;14.55;;;-0.50;99.90;;;;;;12490263;28;20057;-41
2022/03/04 04:33:22;;;;;;;34.38;14.85;;;-0.50;99.90;;;;;;12469104;28;21056;-36
2022/03/04 04:39:26;;;;;;;32.53;14.88;;;-0.30;99.90;;;;;;12489192;28;20049;-36
2022/03/04 04:45:28;;;;;;;30.70;14.57;;;-0.50;99.90;;;;;;12487488;28;20045;-36
2022/03/04 04:51:31;;;;;;;35.13;16.02;;;-0.40;99.90;;;;;;12485055;28;20060;-41
2022/03/04 04:57:34;;;;;;;30.35;14.27;;;-0.40;99.90;;;;;;12471478;28;20132;-39
2022/03/04 05:03:36;;;;;;;31.02;14.57;;;-0.40;99.90;;;;;;12487129;28;20060;-41
2022/03/04 05:09:39;;;;;;;29.08;13.85;;;-0.40;99.90;;;;;;12471214;28;20489;-36
2022/03/04 05:15:43;;;;;;;31.13;14.02;;;-0.40;99.90;;;;;;12485321;28;20045;-36
2022/03/04 05:21:47;;;;;;;30.63;14.07;;;-0.30;99.90;;;;;;12487329;28;20045;-36
2022/03/04 05:27:54;;;;;;;33.35;14.07;;;-0.20;99.90;;;;;;12486810;28;20052;-36
2022/03/04 05:33:57;;;;;;;30.20;13.50;;;-0.20;99.90;;;;;;12488671;28;20096;-38
2022/03/04 05:40:00;;;;;;;31.27;15.40;;;0.00;99.90;;;;;;12489268;28;20163;-36
2022/03/04 05:46:05;;;;;;;28.48;13.57;;;-0.10;99.90;;;;;;12484591;28;20460;-36
2022/03/04 05:52:08;;;;;;;28.15;13.18;;;-0.10;99.90;;;;;;12466890;28;20132;-39
2022/03/04 05:58:12;;;;;;;26.98;13.35;;;-0.40;99.90;;;;;;12485050;28;20115;-39
2022/03/04 06:04:15;;;;;;;26.55;11.77;;;-0.50;99.90;;;;;;12489339;28;20056;-35
2022/03/04 06:10:19;;;;;;;27.20;12.68;;;-0.60;99.90;;;;;;12486046;28;20079;-39
2022/03/04 06:16:22;;;;;;;26.85;12.45;;;-0.50;99.90;;;;;;12477912;28;20119;-39
2022/03/04 06:22:26;;;;;;;26.45;11.60;;;-0.40;99.90;;;;;;12495791;28;20505;-36
2022/03/04 06:28:29;;;;;;;28.60;13.13;;;-0.60;99.90;;;;;;12494867;28;20132;-36
2022/03/04 06:34:34;;;;;;;23.80;11.18;;;-0.70;99.90;;;;;;12494827;28;20091;-39
2022/03/04 06:40:38;;;;;;;26.08;11.85;;;-0.70;99.90;;;;;;12490260;28;20159;-37
2022/03/04 06:46:42;;;;;;;20.98;10.48;;;-0.70;99.90;;;;;;12501013;28;20052;-35
2022/03/04 06:52:45;;;;;;;24.90;11.93;;;-0.50;99.90;;;;;;12481751;28;20485;-36
2022/03/04 06:58:48;;;;;;;22.20;10.98;;;-0.30;99.90;;;;;;12498313;28;20114;-36
2022/03/04 07:04:51;;;;;;;23.23;10.80;;;-0.30;99.90;;;;;;12491895;28;20057;-41
2022/03/04 07:10:54;;;;;;;21.70;10.25;;;-0.20;99.90;;;;;;12492553;28;20140;-36
2022/03/04 07:16:58;;;;;;;25.03;10.87;;;-0.10;99.90;;;;;;12498599;28;20060;-37
2022/03/04 07:23:01;;;;;;;21.25;9.68;;;0.00;99.90;;;;;;12490589;28;20076;-36
2022/03/04 07:29:04;;;;;;;19.83;10.52;;;0.00;99.90;;;;;;12485008;28;20475;-36
2022/03/04 07:35:08;;;;;;;19.70;9.65;;;0.00;99.90;;;;;;12493451;28;20095;-41
2022/03/04 07:41:12;;;;;;;23.03;10.80;;;-0.10;99.90;;;;;;12495526;28;20040;-39
2022/03/04 07:47:15;;;;;;;21.63;10.05;;;0.20;99.90;;;;;;12491190;28;20291;-40
2022/03/04 07:53:18;;;;;;;21.00;10.13;;;0.40;99.90;;;;;;12490120;28;20060;-36
2022/03/04 07:59:20;;;;;;;20.77;9.98;;;0.60;99.90;;;;;;12492816;28;20137;-36
2022/03/04 08:05:24;;;;;;;19.95;9.65;;;1.00;99.90;;;;;;12492544;28;20136;-39
2022/03/04 08:11:28;;;;;;;17.67;8.63;;;1.20;99.90;;;;;;12490186;28;20089;-40
2022/03/04 08:17:31;;;;;;;19.05;8.73;;;1.40;99.90;;;;;;12494196;28;20055;-39
2022/03/04 08:23:35;;;;;;;14.97;8.30;;;1.60;99.90;;;;;;12493476;28;20045;-41
2022/03/04 08:29:39;;;;;;;15.88;8.30;;;1.80;99.90;;;;;;12492503;28;20612;-36
2022/03/04 08:35:42;;;;;;;17.88;8.48;;;2.30;99.90;;;;;;12489782;28;20151;-37
2022/03/04 08:41:45;;;;;;;20.93;8.53;;;2.20;99.90;;;;;;12489673;28;20449;-36
2022/03/04 08:47:49;;;;;;;19.00;8.77;;;2.20;99.90;;;;;;12493164;28;20063;-39
2022/03/04 08:53:54;;;;;;;15.35;8.00;;;2.40;99.90;;;;;;12490955;28;20059;-36
2022/03/04 08:59:57;;;;;;;15.20;7.90;;;2.70;99.90;;;;;;12473135;28;20543;-40
2022/03/04 09:05:59;;;;;;;15.80;7.85;;;2.90;99.90;;;;;;12492978;28;20095;-36
2022/03/04 09:12:04;;;;;;;16.13;8.20;;;2.80;99.90;;;;;;12468510;28;20049;-39
2022/03/04 09:18:08;;;;;;;18.67;7.65;;;2.80;99.90;;;;;;12471761;28;20052;-36
2022/03/04 09:24:11;;;;;;;16.73;8.33;;;3.00;99.90;;;;;;12469021;28;20496;-39
2022/03/04 09:30:14;;;;;;;17.70;7.80;;;3.40;99.90;;;;;;12484581;28;20535;-36
2022/03/04 09:36:18;;;;;;;20.60;8.07;;;3.40;99.90;;;;;;12488383;28;20049;-36
2022/03/04 09:42:22;;;;;;;13.80;7.50;;;3.50;99.90;;;;;;12486868;28;20939;-36
2022/03/04 09:48:26;;;;;;;16.55;7.55;;;3.70;99.90;;;;;;12490435;28;20053;-36
2022/03/04 09:54:31;;;;;;;14.38;7.72;;;3.90;99.90;;;;;;12466124;28;20068;-39
2022/03/04 10:00:33;;;;;;;14.68;8.13;;;4.10;99.90;;;;;;12487860;28;20444;-36
2022/03/04 10:06:39;;;;;;;14.77;7.80;;;4.20;99.90;;;;;;12492590;28;20068;-36
2022/03/04 10:12:55;;;;;;;13.77;7.68;;;4.30;99.90;;;;;;12487698;28;20552;-40
2022/03/04 10:19:13;;;;;;;15.50;8.63;;;4.40;99.90;;;;;;12495136;28;20052;-40
2022/03/04 10:25:22;;;;;;;15.57;8.15;;;4.30;99.90;;;;;;12488677;28;20061;-38
2022/03/04 10:31:24;;;;;;;18.67;7.97;;;4.60;99.90;;;;;;12469771;28;20055;-37
2022/03/04 10:37:56;;;;;;;18.27;9.55;;;4.50;99.90;;;;;;12485171;28;20387;-42
2022/03/04 10:44:27;;;;;;;15.45;8.75;;;4.70;99.90;;;;;;12469030;28;20427;-39
2022/03/04 10:50:42;;;;;;;17.48;8.98;;;5.00;99.90;;;;;;12486161;28;20136;-37
2022/03/04 10:56:54;;;;;;;16.48;8.68;;;4.90;99.90;;;;;;12476125;28;20118;-40
2022/03/04 11:02:59;;;;;;;18.02;8.68;;;5.10;99.90;;;;;;12490875;28;20046;-36
2022/03/04 11:09:02;;;;;;;14.75;9.10;;;5.10;99.90;;;;;;12502191;28;20454;-39
2022/03/04 11:15:06;;;;;;;14.63;8.55;;;5.00;99.90;;;;;;12491593;28;20396;-36
2022/03/04 11:21:09;;;;;;;19.88;9.52;;;5.10;99.90;;;;;;12495730;28;20512;-36
2022/03/04 11:27:14;;;;;;;17.65;9.65;;;5.10;99.90;;;;;;12494994;28;20072;-42
2022/03/04 11:33:32;;;;;;;13.75;8.15;;;5.20;99.90;;;;;;12495443;28;20053;-36
2022/03/04 11:40:01;;;;;;;19.33;9.35;;;5.30;99.90;;;;;;12492093;28;20049;-39
2022/03/04 11:46:04;;;;;;;19.17;10.45;;;5.40;99.90;;;;;;12492140;28;20429;-36
2022/03/04 11:52:10;;;;;;;20.33;10.52;;;5.80;99.90;;;;;;12473987;28;20049;-40
2022/03/04 11:58:14;;;;;;;21.52;11.07;;;5.90;99.90;;;;;;12491506;28;20099;-39
2022/03/04 12:04:20;;;;;;;19.85;10.82;;;6.10;99.90;;;;;;12496898;28;20072;-36
2022/03/04 12:10:32;;;;;;;18.83;10.13;;;6.20;99.90;;;;;;12494281;28;20053;-37
2022/03/04 12:16:48;;;;;;;15.55;9.60;;;6.40;99.90;;;;;;12489793;28;20049;-40
2022/03/04 12:22:57;;;;;;;18.75;9.60;;;6.30;99.90;;;;;;12496891;28;20056;-40
2022/03/04 12:29:10;;;;;;;16.33;9.38;;;6.20;99.90;;;;;;12493894;28;20049;-36
2022/03/04 12:35:16;;;;;;;15.82;8.85;;;5.90;99.90;;;;;;12487382;28;20053;-40
2022/03/04 12:41:23;;;;;;;16.38;9.30;;;5.90;99.90;;;;;;12475669;28;20056;-39
2022/03/04 12:47:27;;;;;;;16.95;9.55;;;6.30;99.90;;;;;;12495805;28;20060;-40
2022/03/04 12:53:33;;;;;;;16.23;8.30;;;6.60;99.90;;;;;;12494824;28;20548;-36
2022/03/04 12:59:49;;;;;;;15.60;7.65;;;6.40;99.90;;;;;;12492578;28;20489;-40
2022/03/04 13:05:51;;;;;;;13.40;7.50;;;6.40;99.90;;;;;;12488933;28;20101;-40
2022/03/04 13:11:54;;;;;;;11.52;6.82;;;6.30;99.90;;;;;;12489116;28;20049;-36
2022/03/04 13:17:59;;;;;;;16.07;7.77;;;6.10;99.90;;;;;;12491024;28;20058;-40
2022/03/04 13:24:11;;;;;;;;;;;6.30;99.90;;;;;;12472420;28;20052;-36
2022/03/04 13:30:25;;;;;;;15.00;7.82;;;5.80;99.90;;;;;;12489823;28;19963;-36
2022/03/04 13:36:41;;;;;;;12.70;7.63;;;5.40;99.90;;;;;;12490557;28;20558;-39
2022/03/04 13:42:52;;;;;;;14.75;7.93;;;5.50;99.90;;;;;;12487881;28;20169;-37
2022/03/04 13:49:02;;;;;;;14.57;7.25;;;5.70;99.90;;;;;;12492441;28;20262;-40
2022/03/04 13:55:05;;;;;;;13.68;6.68;;;5.80;99.90;;;;;;12478001;28;20045;-36
2022/03/04 14:01:21;;;;;;;15.35;8.20;;;5.60;99.90;;;;;;12486071;28;20050;-40
2022/03/04 14:07:25;;;;;;;15.55;7.15;;;5.30;99.90;;;;;;12490580;28;20088;-39
2022/03/04 14:13:28;;;;;;;12.35;6.78;;;5.30;99.90;;;;;;12484790;28;20441;-40
2022/03/04 14:19:32;;;;;;;13.17;7.33;;;5.30;99.90;;;;;;12486822;28;20045;-39
2022/03/04 14:25:36;;;;;;;14.38;7.78;;;5.10;99.90;;;;;;12487575;28;20657;-37
2022/03/04 14:31:40;;;;;;;14.80;7.70;;;5.00;99.90;;;;;;12489990;28;20114;-36
2022/03/04 14:37:43;;;;;;;14.90;7.60;;;4.90;99.90;;;;;;12493695;28;20041;-36
2022/03/04 14:43:45;;;;;;;19.88;8.07;;;5.00;99.90;;;;;;12495133;28;20052;-39
2022/03/04 14:49:48;;;;;;;15.50;8.40;;;5.20;99.90;;;;;;12500043;28;20053;-39
2022/03/04 14:55:51;;;;;;;14.83;9.13;;;5.00;99.90;;;;;;12477741;28;20063;-39
2022/03/04 15:01:54;;;;;;;15.45;9.18;;;4.80;99.90;;;;;;12475627;28;20045;-40
2022/03/04 15:07:57;;;;;;;16.35;9.52;;;4.80;99.90;;;;;;12500182;28;20053;-35
2022/03/04 15:14:05;;;;;;;17.75;10.43;;;4.70;99.90;;;;;;12497780;28;20048;-38
2022/03/04 15:20:10;;;;;;;17.67;9.98;;;4.70;99.90;;;;;;12493489;28;20049;-40
2022/03/04 15:26:18;;;;;;;18.23;10.18;;;4.60;99.90;;;;;;12501436;28;20072;-40
2022/03/04 15:32:23;;;;;;;15.97;10.73;;;4.50;99.90;;;;;;12496318;28;20049;-36
2022/03/04 15:38:26;;;;;;;17.05;10.65;;;4.50;99.90;;;;;;12486758;28;20049;-36
2022/03/04 15:44:31;;;;;;;18.52;10.32;;;4.50;99.90;;;;;;12496170;28;20202;-36
2022/03/04 15:50:34;;;;;;;17.42;10.50;;;4.60;99.90;;;;;;12492566;28;20041;-37
2022/03/04 15:56:38;;;;;;;15.10;9.45;;;4.50;99.90;;;;;;12497560;28;20068;-36
2022/03/04 16:02:41;;;;;;;12.88;8.23;;;4.60;99.90;;;;;;12496060;28;20163;-37
2022/03/04 16:08:45;;;;;;;13.47;8.43;;;4.40;99.90;;;;;;12498684;28;20950;-36
2022/03/04 16:14:48;;;;;;;14.75;8.20;;;4.10;99.90;;;;;;12496424;28;20056;-40
2022/03/04 16:20:51;;;;;;;15.82;8.57;;;3.90;99.90;;;;;;12495636;28;20041;-37
2022/03/04 16:26:54;;;;;;;16.08;9.77;;;3.70;99.90;;;;;;12477471;28;20057;-40
2022/03/04 16:32:58;;;;;;;15.18;8.75;;;3.40;99.90;;;;;;12484721;28;20566;-36
2022/03/04 16:39:01;;;;;;;20.90;10.07;;;3.40;99.90;;;;;;12494803;28;20094;-36
2022/03/04 16:45:05;;;;;;;17.05;9.75;;;3.20;99.90;;;;;;12493289;28;20539;-39
2022/03/04 16:51:08;;;;;;;20.10;10.20;;;3.10;99.90;;;;;;12492635;28;20429;-40
2022/03/04 16:57:12;;;;;;;14.68;8.85;;;2.90;99.90;;;;;;12490662;28;20051;-40
2022/03/04 17:03:17;;;;;;;16.73;8.17;;;2.90;99.90;;;;;;12494680;28;20037;-40
2022/03/04 17:09:21;;;;;;;15.48;8.15;;;2.80;99.90;;;;;;12473099;28;20639;-36
2022/03/04 17:15:28;;;;;;;12.23;6.95;;;2.60;99.90;;;;;;12492350;28;20045;-38
2022/03/04 17:21:32;;;;;;;11.80;6.18;;;2.60;99.90;;;;;;12491567;28;20678;-36
2022/03/04 17:27:34;;;;;;;9.85;5.00;;;2.50;99.90;;;;;;12490224;28;20064;-44
2022/03/04 17:33:38;;;;;;;9.15;5.45;;;2.50;99.90;;;;;;12498224;28;20102;-39
2022/03/04 17:39:41;;;;;;;9.73;4.82;;;2.30;99.90;;;;;;12496864;28;20052;-39
2022/03/04 17:45:43;;;;;;;8.73;4.47;;;2.10;99.90;;;;;;12492090;28;20045;-41
2022/03/04 17:51:48;;;;;;;10.43;4.90;;;2.10;99.90;;;;;;12468700;28;20045;-39
2022/03/04 17:57:51;;;;;;;9.20;4.60;;;2.00;99.90;;;;;;12495299;28;20059;-36
2022/03/04 18:03:56;;;;;;;7.88;4.60;;;1.90;99.90;;;;;;12490126;28;20041;-36
2022/03/04 18:09:59;;;;;;;;;;;1.90;99.90;;;;;;12489202;28;20044;-39
2022/03/04 18:16:04;;;;;;;12.13;5.88;;;1.70;99.90;;;;;;12491068;28;19925;-40
2022/03/04 18:22:08;;;;;;;12.52;6.00;;;1.70;99.90;;;;;;12485466;28;20055;-36
2022/03/04 18:28:11;;;;;;;16.50;7.27;;;1.70;99.90;;;;;;12491904;28;20444;-39
2022/03/04 18:34:13;;;;;;;15.70;7.90;;;1.60;99.90;;;;;;12492393;28;20050;-39
2022/03/04 18:40:19;;;;;;;17.08;7.95;;;1.60;99.90;;;;;;12492550;28;20073;-39
2022/03/04 18:46:23;;;;;;;13.70;6.60;;;1.50;99.90;;;;;;12494954;28;20053;-40
2022/03/04 18:52:26;;;;;;;14.13;6.60;;;1.50;99.90;;;;;;12495451;28;20419;-40
2022/03/04 18:58:28;;;;;;;16.15;7.18;;;1.50;99.90;;;;;;12493364;28;20092;-36
2022/03/04 19:04:33;;;;;;;12.95;7.05;;;1.50;99.90;;;;;;12473281;28;20482;-38
2022/03/04 19:10:39;;;;;;;14.73;6.47;;;1.50;99.90;;;;;;12472769;28;20052;-40
2022/03/04 19:16:42;;;;;;;16.88;6.97;;;1.50;99.90;;;;;;12495214;28;20082;-39
2022/03/04 19:22:47;;;;;;;15.27;6.75;;;1.40;99.90;;;;;;12496075;28;20963;-39
2022/03/04 19:28:49;;;;;;;13.13;6.93;;;1.40;99.90;;;;;;12504534;28;20471;-40
2022/03/04 19:34:52;;;;;;;16.05;6.57;;;1.40;99.90;;;;;;12497056;28;20042;-40
2022/03/04 19:40:56;;;;;;;11.48;6.72;;;1.40;99.90;;;;;;12501846;28;20061;-35
2022/03/04 19:46:59;;;;;;;11.70;6.80;;;1.30;99.90;;;;;;12469943;28;20122;-39
2022/03/04 19:53:03;;;;;;;13.47;6.63;;;1.30;99.90;;;;;;12476241;28;20053;-37
2022/03/04 19:59:06;;;;;;;14.87;7.13;;;1.20;99.90;;;;;;12499176;28;20132;-40
2022/03/04 20:05:10;;;;;;;13.35;6.50;;;1.10;99.90;;;;;;12497752;28;20045;-36
2022/03/04 20:11:13;;;;;;;15.88;8.07;;;1.10;99.90;;;;;;12498298;28;20127;-35
2022/03/04 20:17:16;;;;;;;15.98;7.53;;;1.10;99.90;;;;;;12480941;28;20045;-36
2022/03/04 20:23:18;;;;;;;15.20;7.13;;;1.10;99.90;;;;;;12495265;28;20056;-35
2022/03/04 20:29:20;;;;;;;14.55;7.05;;;1.20;99.90;;;;;;12496558;28;21185;-36
2022/03/04 20:35:23;;;;;;;13.48;6.80;;;1.30;99.90;;;;;;12495336;28;20060;-39
2022/03/04 20:41:26;;;;;;;13.23;6.10;;;1.40;99.90;;;;;;12496018;28;20052;-36
2022/03/04 20:47:30;;;;;;;11.98;6.30;;;1.50;99.90;;;;;;12496693;28;20045;-40
2022/03/04 20:53:35;;;;;;;10.52;5.68;;;1.50;99.90;;;;;;12494666;28;20497;-39
2022/03/04 20:59:43;;;;;;;13.05;6.30;;;1.60;99.90;;;;;;12478213;28;20081;-36
2022/03/04 21:05:45;;;;;;;10.57;5.20;;;1.50;99.90;;;;;;12474386;28;20049;-36
2022/03/04 21:11:47;;;;;;;12.07;5.65;;;1.30;99.90;;;;;;12492915;28;20077;-40
2022/03/04 21:17:50;;;;;;;9.10;4.53;;;1.30;99.90;;;;;;12478024;28;20072;-39
2022/03/04 21:23:54;;;;;;;9.00;4.77;;;1.20;99.90;;;;;;12495489;28;20049;-35
2022/03/04 21:29:57;;;;;;;10.90;4.65;;;1.10;99.90;;;;;;12493917;28;20138;-39
2022/03/04 21:36:00;;;;;;;9.60;4.30;;;1.00;99.90;;;;;;12492180;28;20049;-37
2022/03/04 21:42:03;;;;;;;6.85;3.80;;;0.90;99.90;;;;;;12491913;28;20042;-35
2022/03/04 21:48:10;;;;;;;7.70;3.85;;;0.80;99.90;;;;;;12493922;28;20056;-36
2022/03/04 21:54:13;;;;;;;6.93;3.80;;;0.70;99.90;;;;;;12494902;28;20057;-39
2022/03/04 22:00:16;;;;;;;9.23;4.15;;;0.70;99.90;;;;;;12489772;28;20371;-39
2022/03/04 22:06:19;;;;;;;7.88;3.78;;;0.60;99.90;;;;;;12475061;28;20871;-36
2022/03/04 22:12:23;;;;;;;10.00;4.00;;;0.60;99.90;;;;;;12490552;28;20053;-39
2022/03/04 22:18:25;;;;;;;7.07;3.65;;;0.50;99.90;;;;;;12492491;28;20512;-41
2022/03/04 22:24:28;;;;;;;11.43;3.83;;;0.30;99.90;;;;;;12493253;28;20068;-39
2022/03/04 22:30:31;;;;;;;9.13;4.97;;;0.20;99.90;;;;;;12489443;28;20057;-36
2022/03/04 22:36:33;;;;;;;8.30;3.85;;;0.10;99.90;;;;;;12492604;28;20132;-40
2022/03/04 22:42:36;;;;;;;13.02;4.47;;;0.10;99.90;;;;;;12495268;28;20410;-36
2022/03/04 22:48:39;;;;;;;9.82;3.72;;;0.10;99.90;;;;;;12491791;28;20068;-39
2022/03/04 22:54:44;;;;;;;7.77;3.90;;;0.10;99.90;;;;;;12493496;28;20052;-38
2022/03/04 23:01:07;;;;;;;8.13;4.33;;;0.10;99.90;;;;;;12500965;28;20073;-40
2022/03/04 23:13:37;;;;;;;9.57;4.93;;;0.10;99.90;;;;;;12474059;28;20068;-39
2022/03/04 23:19:39;;;;;;;12.98;5.90;;;0.10;99.90;;;;;;12502012;28;20057;-38
2022/03/04 23:25:41;;;;;;;14.00;6.13;;;0.00;99.90;;;;;;12495985;28;20126;-36
2022/03/04 23:31:44;;;;;;;14.80;6.28;;;0.00;99.90;;;;;;12480315;28;20037;-40
2022/03/04 23:37:47;;;;;;;17.88;7.13;;;0.00;99.90;;;;;;12499033;28;20074;-35
2022/03/04 23:43:50;;;;;;;16.70;8.05;;;0.00;99.90;;;;;;12499068;28;20075;-37
2022/03/04 23:49:55;;;;;;;16.77;7.25;;;0.00;99.90;;;;;;12497897;28;20060;-39
2022/03/04 23:55:58;;;;;;;16.67;8.80;;;-0.10;99.90;;;;;;12497160;28;20568;-40
